sensor_id;sensor_type;location;lat;lon;timestamp;P1;durP1;ratioP1;P2;durP2;ratioP2
15913;SDS011;8055;51.930;8.840;2023-12-14T00:00:24;18.08;;;11.68;;
15913;SDS011;8055;51.930;8.840;2023-12-14T00:02:49;17.35;;;10.90;;
15913;SDS011;8055;51.930;8.840;2023-12-14T00:05:14;16.85;;;10.52;;
15913;SDS011;8055;51.930;8.840;2023-12-14T00:07:40;19.48;;;12.10;;
15913;SDS011;8055;51.930;8.840;2023-12-14T00:10:05;17.85;;;10.23;;
15913;SDS011;8055;51.930;8.840;2023-12-14T00:12:31;18.27;;;11.05;;
15913;SDS011;8055;51.930;8.840;2023-12-14T00:14:57;16.60;;;10.13;;
15913;SDS011;8055;51.930;8.840;2023-12-14T00:17:22;17.15;;;10.55;;
15913;SDS011;8055;51.930;8.840;2023-12-14T00:19:47;14.43;;;9.80;;
15913;SDS011;8055;51.930;8.840;2023-12-14T00:22:13;14.93;;;9.75;;
15913;SDS011;8055;51.930;8.840;2023-12-14T00:24:38;13.63;;;9.60;;
15913;SDS011;8055;51.930;8.840;2023-12-14T00:27:04;13.27;;;9.02;;
15913;SDS011;8055;51.930;8.840;2023-12-14T00:29:29;12.65;;;8.55;;
15913;SDS011;8055;51.930;8.840;2023-12-14T00:31:55;12.95;;;8.50;;
15913;SDS011;8055;51.930;8.840;2023-12-14T00:34:20;19.15;;;10.23;;
15913;SDS011;8055;51.930;8.840;2023-12-14T00:36:45;19.55;;;11.65;;
15913;SDS011;8055;51.930;8.840;2023-12-14T00:39:11;19.10;;;10.77;;
15913;SDS011;8055;51.930;8.840;2023-12-14T00:41:36;17.95;;;10.50;;
15913;SDS011;8055;51.930;8.840;2023-12-14T00:44:02;17.15;;;10.00;;
15913;SDS011;8055;51.930;8.840;2023-12-14T00:46:27;17.33;;;9.90;;
15913;SDS011;8055;51.930;8.840;2023-12-14T00:48:52;16.48;;;9.73;;
15913;SDS011;8055;51.930;8.840;2023-12-14T00:51:18;17.73;;;9.48;;
15913;SDS011;8055;51.930;8.840;2023-12-14T00:53:43;18.05;;;10.05;;
15913;SDS011;8055;51.930;8.840;2023-12-14T00:56:09;17.50;;;10.43;;
15913;SDS011;8055;51.930;8.840;2023-12-14T00:58:34;17.95;;;10.55;;
15913;SDS011;8055;51.930;8.840;2023-12-14T01:00:59;19.02;;;10.52;;
15913;SDS011;8055;51.930;8.840;2023-12-14T01:03:25;17.15;;;10.05;;
15913;SDS011;8055;51.930;8.840;2023-12-14T01:05:50;17.77;;;10.75;;
15913;SDS011;8055;51.930;8.840;2023-12-14T01:08:16;16.50;;;10.30;;
15913;SDS011;8055;51.930;8.840;2023-12-14T01:10:42;16.35;;;10.65;;
15913;SDS011;8055;51.930;8.840;2023-12-14T01:13:07;14.88;;;9.18;;
15913;SDS011;8055;51.930;8.840;2023-12-14T01:15:33;13.75;;;8.95;;
15913;SDS011;8055;51.930;8.840;2023-12-14T01:17:58;14.82;;;9.38;;
15913;SDS011;8055;51.930;8.840;2023-12-14T01:20:23;16.98;;;8.77;;
15913;SDS011;8055;51.930;8.840;2023-12-14T01:22:49;14.50;;;8.40;;
15913;SDS011;8055;51.930;8.840;2023-12-14T01:25:14;9.85;;;7.05;;
15913;SDS011;8055;51.930;8.840;2023-12-14T01:27:40;10.57;;;6.95;;
15913;SDS011;8055;51.930;8.840;2023-12-14T01:30:05;10.10;;;7.18;;
15913;SDS011;8055;51.930;8.840;2023-12-14T01:32:31;8.60;;;6.45;;
15913;SDS011;8055;51.930;8.840;2023-12-14T01:34:56;9.82;;;6.32;;
15913;SDS011;8055;51.930;8.840;2023-12-14T01:37:22;8.70;;;5.35;;
15913;SDS011;8055;51.930;8.840;2023-12-14T01:39:47;7.28;;;5.10;;
15913;SDS011;8055;51.930;8.840;2023-12-14T01:42:13;8.55;;;5.28;;
15913;SDS011;8055;51.930;8.840;2023-12-14T01:44:38;8.23;;;5.20;;
15913;SDS011;8055;51.930;8.840;2023-12-14T01:47:04;9.35;;;5.90;;
15913;SDS011;8055;51.930;8.840;2023-12-14T01:49:29;7.45;;;5.45;;
15913;SDS011;8055;51.930;8.840;2023-12-14T01:51:54;8.35;;;5.25;;
15913;SDS011;8055;51.930;8.840;2023-12-14T01:54:20;8.82;;;5.55;;
15913;SDS011;8055;51.930;8.840;2023-12-14T01:56:45;8.32;;;6.00;;
15913;SDS011;8055;51.930;8.840;2023-12-14T01:59:11;9.02;;;6.00;;
15913;SDS011;8055;51.930;8.840;2023-12-14T02:01:44;9.30;;;6.18;;
15913;SDS011;8055;51.930;8.840;2023-12-14T02:04:10;9.25;;;6.47;;
15913;SDS011;8055;51.930;8.840;2023-12-14T02:06:37;11.48;;;7.10;;
15913;SDS011;8055;51.930;8.840;2023-12-14T02:09:02;11.30;;;7.50;;
15913;SDS011;8055;51.930;8.840;2023-12-14T02:11:28;10.55;;;6.70;;
15913;SDS011;8055;51.930;8.840;2023-12-14T02:13:54;12.32;;;8.15;;
15913;SDS011;8055;51.930;8.840;2023-12-14T02:16:19;11.05;;;7.60;;
15913;SDS011;8055;51.930;8.840;2023-12-14T02:18:45;10.55;;;7.20;;
15913;SDS011;8055;51.930;8.840;2023-12-14T02:21:10;13.02;;;7.88;;
15913;SDS011;8055;51.930;8.840;2023-12-14T02:23:42;11.48;;;8.05;;
15913;SDS011;8055;51.930;8.840;2023-12-14T02:26:09;12.65;;;7.63;;
15913;SDS011;8055;51.930;8.840;2023-12-14T02:28:34;10.98;;;7.47;;
15913;SDS011;8055;51.930;8.840;2023-12-14T02:31:00;8.70;;;6.50;;
15913;SDS011;8055;51.930;8.840;2023-12-14T02:33:25;11.63;;;8.00;;
15913;SDS011;8055;51.930;8.840;2023-12-14T02:35:50;12.32;;;7.55;;
15913;SDS011;8055;51.930;8.840;2023-12-14T02:38:16;10.82;;;7.40;;
15913;SDS011;8055;51.930;8.840;2023-12-14T02:40:41;9.77;;;7.15;;
15913;SDS011;8055;51.930;8.840;2023-12-14T02:43:06;9.75;;;6.93;;
15913;SDS011;8055;51.930;8.840;2023-12-14T02:45:32;10.50;;;6.82;;
15913;SDS011;8055;51.930;8.840;2023-12-14T02:47:57;10.25;;;7.32;;
15913;SDS011;8055;51.930;8.840;2023-12-14T02:50:22;9.52;;;6.53;;
15913;SDS011;8055;51.930;8.840;2023-12-14T02:52:48;9.10;;;6.30;;
15913;SDS011;8055;51.930;8.840;2023-12-14T02:55:13;11.75;;;6.72;;
15913;SDS011;8055;51.930;8.840;2023-12-14T02:57:38;12.60;;;6.93;;
15913;SDS011;8055;51.930;8.840;2023-12-14T03:00:04;12.13;;;6.70;;
15913;SDS011;8055;51.930;8.840;2023-12-14T03:02:30;9.25;;;6.13;;
15913;SDS011;8055;51.930;8.840;2023-12-14T03:04:55;10.57;;;6.40;;
15913;SDS011;8055;51.930;8.840;2023-12-14T03:07:21;7.70;;;5.53;;
15913;SDS011;8055;51.930;8.840;2023-12-14T03:09:46;8.75;;;6.38;;
15913;SDS011;8055;51.930;8.840;2023-12-14T03:12:11;9.20;;;5.95;;
15913;SDS011;8055;51.930;8.840;2023-12-14T03:14:37;10.20;;;5.32;;
15913;SDS011;8055;51.930;8.840;2023-12-14T03:17:02;8.13;;;5.10;;
15913;SDS011;8055;51.930;8.840;2023-12-14T03:19:28;8.10;;;5.22;;
15913;SDS011;8055;51.930;8.840;2023-12-14T03:21:53;11.38;;;6.80;;
15913;SDS011;8055;51.930;8.840;2023-12-14T03:24:19;8.25;;;6.00;;
15913;SDS011;8055;51.930;8.840;2023-12-14T03:26:45;11.10;;;5.93;;
15913;SDS011;8055;51.930;8.840;2023-12-14T03:29:10;8.68;;;6.03;;
15913;SDS011;8055;51.930;8.840;2023-12-14T03:31:35;7.57;;;5.80;;
15913;SDS011;8055;51.930;8.840;2023-12-14T03:34:01;6.82;;;4.82;;
15913;SDS011;8055;51.930;8.840;2023-12-14T03:36:26;7.72;;;5.18;;
15913;SDS011;8055;51.930;8.840;2023-12-14T03:38:52;8.35;;;5.95;;
15913;SDS011;8055;51.930;8.840;2023-12-14T03:41:18;7.18;;;5.05;;
15913;SDS011;8055;51.930;8.840;2023-12-14T03:43:43;7.57;;;5.30;;
15913;SDS011;8055;51.930;8.840;2023-12-14T03:46:09;7.68;;;5.60;;
15913;SDS011;8055;51.930;8.840;2023-12-14T03:48:34;6.95;;;5.28;;
15913;SDS011;8055;51.930;8.840;2023-12-14T03:51:02;7.85;;;5.45;;
15913;SDS011;8055;51.930;8.840;2023-12-14T03:53:28;7.88;;;6.00;;
15913;SDS011;8055;51.930;8.840;2023-12-14T03:55:54;8.75;;;6.03;;
15913;SDS011;8055;51.930;8.840;2023-12-14T03:58:19;8.43;;;6.18;;
15913;SDS011;8055;51.930;8.840;2023-12-14T04:00:45;7.35;;;5.80;;
15913;SDS011;8055;51.930;8.840;2023-12-14T04:03:10;8.27;;;6.30;;
15913;SDS011;8055;51.930;8.840;2023-12-14T04:05:35;8.40;;;6.60;;
15913;SDS011;8055;51.930;8.840;2023-12-14T04:08:01;9.82;;;7.28;;
15913;SDS011;8055;51.930;8.840;2023-12-14T04:10:26;8.43;;;6.40;;
15913;SDS011;8055;51.930;8.840;2023-12-14T04:12:52;11.75;;;7.10;;
15913;SDS011;8055;51.930;8.840;2023-12-14T04:15:17;9.70;;;6.93;;
15913;SDS011;8055;51.930;8.840;2023-12-14T04:17:42;9.63;;;6.90;;
15913;SDS011;8055;51.930;8.840;2023-12-14T04:20:08;9.93;;;6.63;;
15913;SDS011;8055;51.930;8.840;2023-12-14T04:22:34;9.48;;;6.88;;
15913;SDS011;8055;51.930;8.840;2023-12-14T04:24:59;10.95;;;7.35;;
15913;SDS011;8055;51.930;8.840;2023-12-14T04:27:25;10.38;;;6.90;;
15913;SDS011;8055;51.930;8.840;2023-12-14T04:29:53;10.02;;;6.97;;
15913;SDS011;8055;51.930;8.840;2023-12-14T04:32:19;9.77;;;7.07;;
15913;SDS011;8055;51.930;8.840;2023-12-14T04:34:44;9.70;;;7.20;;
15913;SDS011;8055;51.930;8.840;2023-12-14T04:37:10;9.93;;;6.10;;
15913;SDS011;8055;51.930;8.840;2023-12-14T04:39:35;7.95;;;5.72;;
15913;SDS011;8055;51.930;8.840;2023-12-14T04:42:00;7.38;;;5.95;;
15913;SDS011;8055;51.930;8.840;2023-12-14T04:44:26;9.60;;;6.63;;
15913;SDS011;8055;51.930;8.840;2023-12-14T04:46:51;7.60;;;5.85;;
15913;SDS011;8055;51.930;8.840;2023-12-14T04:49:18;9.05;;;6.50;;
15913;SDS011;8055;51.930;8.840;2023-12-14T04:51:44;7.78;;;5.90;;
15913;SDS011;8055;51.930;8.840;2023-12-14T04:54:10;8.80;;;6.47;;
15913;SDS011;8055;51.930;8.840;2023-12-14T04:56:35;7.70;;;6.03;;
15913;SDS011;8055;51.930;8.840;2023-12-14T04:59:00;7.75;;;6.13;;
15913;SDS011;8055;51.930;8.840;2023-12-14T05:01:26;9.15;;;6.95;;
15913;SDS011;8055;51.930;8.840;2023-12-14T05:03:54;10.15;;;7.70;;
15913;SDS011;8055;51.930;8.840;2023-12-14T05:06:20;11.52;;;7.65;;
15913;SDS011;8055;51.930;8.840;2023-12-14T05:08:46;11.57;;;7.88;;
15913;SDS011;8055;51.930;8.840;2023-12-14T05:11:14;11.30;;;8.65;;
15913;SDS011;8055;51.930;8.840;2023-12-14T05:13:40;12.40;;;8.73;;
15913;SDS011;8055;51.930;8.840;2023-12-14T05:16:06;13.35;;;9.00;;
15913;SDS011;8055;51.930;8.840;2023-12-14T05:18:32;11.88;;;8.70;;
15913;SDS011;8055;51.930;8.840;2023-12-14T05:20:57;11.30;;;8.10;;
15913;SDS011;8055;51.930;8.840;2023-12-14T05:23:24;12.75;;;9.35;;
15913;SDS011;8055;51.930;8.840;2023-12-14T05:25:49;13.23;;;8.93;;
15913;SDS011;8055;51.930;8.840;2023-12-14T05:28:15;12.90;;;8.85;;
15913;SDS011;8055;51.930;8.840;2023-12-14T05:30:40;12.30;;;8.98;;
15913;SDS011;8055;51.930;8.840;2023-12-14T05:33:06;12.63;;;8.80;;
15913;SDS011;8055;51.930;8.840;2023-12-14T05:35:32;14.88;;;10.18;;
15913;SDS011;8055;51.930;8.840;2023-12-14T05:37:57;16.23;;;11.13;;
15913;SDS011;8055;51.930;8.840;2023-12-14T05:40:23;18.10;;;10.90;;
15913;SDS011;8055;51.930;8.840;2023-12-14T05:42:48;16.15;;;10.95;;
15913;SDS011;8055;51.930;8.840;2023-12-14T05:45:14;16.33;;;11.63;;
15913;SDS011;8055;51.930;8.840;2023-12-14T05:47:39;17.73;;;11.73;;
15913;SDS011;8055;51.930;8.840;2023-12-14T05:50:06;17.48;;;11.27;;
15913;SDS011;8055;51.930;8.840;2023-12-14T05:52:34;15.48;;;10.48;;
15913;SDS011;8055;51.930;8.840;2023-12-14T05:54:59;14.30;;;10.18;;
15913;SDS011;8055;51.930;8.840;2023-12-14T05:57:25;13.75;;;10.15;;
15913;SDS011;8055;51.930;8.840;2023-12-14T05:59:50;16.65;;;10.70;;
15913;SDS011;8055;51.930;8.840;2023-12-14T06:02:16;16.98;;;10.93;;
15913;SDS011;8055;51.930;8.840;2023-12-14T06:04:41;17.25;;;10.02;;
15913;SDS011;8055;51.930;8.840;2023-12-14T06:07:06;17.63;;;10.27;;
15913;SDS011;8055;51.930;8.840;2023-12-14T06:09:32;15.90;;;10.70;;
15913;SDS011;8055;51.930;8.840;2023-12-14T06:12:03;17.27;;;11.50;;
15913;SDS011;8055;51.930;8.840;2023-12-14T06:14:29;17.17;;;11.13;;
15913;SDS011;8055;51.930;8.840;2023-12-14T06:16:55;19.75;;;11.68;;
15913;SDS011;8055;51.930;8.840;2023-12-14T06:19:21;18.13;;;11.52;;
15913;SDS011;8055;51.930;8.840;2023-12-14T06:21:47;17.23;;;11.23;;
15913;SDS011;8055;51.930;8.840;2023-12-14T06:24:13;19.02;;;11.00;;
15913;SDS011;8055;51.930;8.840;2023-12-14T06:26:42;18.92;;;11.90;;
15913;SDS011;8055;51.930;8.840;2023-12-14T06:29:11;18.73;;;11.18;;
15913;SDS011;8055;51.930;8.840;2023-12-14T06:31:37;17.88;;;11.32;;
15913;SDS011;8055;51.930;8.840;2023-12-14T06:34:05;17.23;;;11.93;;
15913;SDS011;8055;51.930;8.840;2023-12-14T06:36:31;17.30;;;10.52;;
15913;SDS011;8055;51.930;8.840;2023-12-14T06:39:00;20.10;;;12.93;;
15913;SDS011;8055;51.930;8.840;2023-12-14T06:41:26;16.73;;;10.98;;
15913;SDS011;8055;51.930;8.840;2023-12-14T06:43:53;18.13;;;11.18;;
15913;SDS011;8055;51.930;8.840;2023-12-14T06:46:19;17.75;;;11.20;;
15913;SDS011;8055;51.930;8.840;2023-12-14T06:48:45;15.90;;;10.15;;
15913;SDS011;8055;51.930;8.840;2023-12-14T06:51:10;16.08;;;10.45;;
15913;SDS011;8055;51.930;8.840;2023-12-14T06:53:36;13.05;;;9.20;;
15913;SDS011;8055;51.930;8.840;2023-12-14T06:56:05;14.63;;;9.65;;
15913;SDS011;8055;51.930;8.840;2023-12-14T06:58:31;14.27;;;9.40;;
15913;SDS011;8055;51.930;8.840;2023-12-14T07:00:56;13.23;;;9.23;;
15913;SDS011;8055;51.930;8.840;2023-12-14T07:03:22;17.17;;;10.75;;
15913;SDS011;8055;51.930;8.840;2023-12-14T07:05:47;15.70;;;10.73;;
15913;SDS011;8055;51.930;8.840;2023-12-14T07:08:12;15.88;;;10.60;;
15913;SDS011;8055;51.930;8.840;2023-12-14T07:10:38;13.52;;;9.40;;
15913;SDS011;8055;51.930;8.840;2023-12-14T07:13:06;14.98;;;9.85;;
15913;SDS011;8055;51.930;8.840;2023-12-14T07:15:31;13.23;;;9.10;;
15913;SDS011;8055;51.930;8.840;2023-12-14T07:17:57;11.98;;;8.60;;
15913;SDS011;8055;51.930;8.840;2023-12-14T07:20:22;10.05;;;7.90;;
15913;SDS011;8055;51.930;8.840;2023-12-14T07:22:48;13.18;;;9.52;;
15913;SDS011;8055;51.930;8.840;2023-12-14T07:25:13;12.80;;;8.93;;
15913;SDS011;8055;51.930;8.840;2023-12-14T07:27:38;15.32;;;9.35;;
15913;SDS011;8055;51.930;8.840;2023-12-14T07:30:04;14.43;;;9.65;;
15913;SDS011;8055;51.930;8.840;2023-12-14T07:32:30;15.80;;;10.38;;
15913;SDS011;8055;51.930;8.840;2023-12-14T07:34:55;19.05;;;10.75;;
15913;SDS011;8055;51.930;8.840;2023-12-14T07:37:20;12.45;;;8.38;;
15913;SDS011;8055;51.930;8.840;2023-12-14T07:39:46;13.07;;;9.05;;
15913;SDS011;8055;51.930;8.840;2023-12-14T07:42:11;11.32;;;8.23;;
15913;SDS011;8055;51.930;8.840;2023-12-14T07:44:37;9.63;;;6.95;;
15913;SDS011;8055;51.930;8.840;2023-12-14T07:47:05;9.55;;;6.70;;
15913;SDS011;8055;51.930;8.840;2023-12-14T07:49:30;8.88;;;6.50;;
15913;SDS011;8055;51.930;8.840;2023-12-14T07:51:56;10.20;;;6.72;;
15913;SDS011;8055;51.930;8.840;2023-12-14T07:54:21;9.77;;;7.13;;
15913;SDS011;8055;51.930;8.840;2023-12-14T07:56:47;10.65;;;7.20;;
15913;SDS011;8055;51.930;8.840;2023-12-14T07:59:12;9.95;;;7.18;;
15913;SDS011;8055;51.930;8.840;2023-12-14T08:01:38;10.60;;;7.53;;
15913;SDS011;8055;51.930;8.840;2023-12-14T08:04:03;12.38;;;9.18;;
15913;SDS011;8055;51.930;8.840;2023-12-14T08:06:29;12.18;;;8.52;;
15913;SDS011;8055;51.930;8.840;2023-12-14T08:08:55;12.48;;;8.75;;
15913;SDS011;8055;51.930;8.840;2023-12-14T08:11:23;11.68;;;7.97;;
15913;SDS011;8055;51.930;8.840;2023-12-14T08:13:48;11.82;;;8.30;;
15913;SDS011;8055;51.930;8.840;2023-12-14T08:16:14;13.60;;;8.75;;
15913;SDS011;8055;51.930;8.840;2023-12-14T08:18:40;12.93;;;9.40;;
15913;SDS011;8055;51.930;8.840;2023-12-14T08:21:07;14.32;;;10.38;;
15913;SDS011;8055;51.930;8.840;2023-12-14T08:23:32;16.50;;;11.20;;
15913;SDS011;8055;51.930;8.840;2023-12-14T08:25:58;16.52;;;11.63;;
15913;SDS011;8055;51.930;8.840;2023-12-14T08:28:24;16.98;;;12.00;;
15913;SDS011;8055;51.930;8.840;2023-12-14T08:30:49;16.75;;;11.40;;
15913;SDS011;8055;51.930;8.840;2023-12-14T08:33:14;16.95;;;12.25;;
15913;SDS011;8055;51.930;8.840;2023-12-14T08:35:40;18.70;;;12.20;;
15913;SDS011;8055;51.930;8.840;2023-12-14T08:38:06;20.15;;;13.90;;
15913;SDS011;8055;51.930;8.840;2023-12-14T08:40:31;22.17;;;14.25;;
15913;SDS011;8055;51.930;8.840;2023-12-14T08:42:57;21.85;;;14.27;;
15913;SDS011;8055;51.930;8.840;2023-12-14T08:45:22;21.23;;;13.73;;
15913;SDS011;8055;51.930;8.840;2023-12-14T08:47:47;20.45;;;13.60;;
15913;SDS011;8055;51.930;8.840;2023-12-14T08:50:13;22.85;;;13.60;;
15913;SDS011;8055;51.930;8.840;2023-12-14T08:52:38;18.90;;;12.63;;
15913;SDS011;8055;51.930;8.840;2023-12-14T08:55:04;18.13;;;12.15;;
15913;SDS011;8055;51.930;8.840;2023-12-14T08:57:29;19.55;;;12.27;;
15913;SDS011;8055;51.930;8.840;2023-12-14T08:59:56;22.15;;;13.18;;
15913;SDS011;8055;51.930;8.840;2023-12-14T09:02:21;20.38;;;12.77;;
15913;SDS011;8055;51.930;8.840;2023-12-14T09:04:47;19.95;;;12.95;;
15913;SDS011;8055;51.930;8.840;2023-12-14T09:07:12;19.23;;;12.48;;
15913;SDS011;8055;51.930;8.840;2023-12-14T09:09:37;21.17;;;13.00;;
15913;SDS011;8055;51.930;8.840;2023-12-14T09:12:03;17.88;;;12.25;;
15913;SDS011;8055;51.930;8.840;2023-12-14T09:14:28;19.20;;;12.10;;
15913;SDS011;8055;51.930;8.840;2023-12-14T09:16:54;15.75;;;11.50;;
15913;SDS011;8055;51.930;8.840;2023-12-14T09:19:20;15.45;;;11.07;;
15913;SDS011;8055;51.930;8.840;2023-12-14T09:21:45;19.45;;;11.20;;
15913;SDS011;8055;51.930;8.840;2023-12-14T09:24:11;16.17;;;10.80;;
15913;SDS011;8055;51.930;8.840;2023-12-14T09:26:36;16.48;;;10.70;;
15913;SDS011;8055;51.930;8.840;2023-12-14T09:29:02;14.45;;;10.50;;
15913;SDS011;8055;51.930;8.840;2023-12-14T09:31:27;14.02;;;10.32;;
15913;SDS011;8055;51.930;8.840;2023-12-14T09:33:53;16.17;;;10.40;;
15913;SDS011;8055;51.930;8.840;2023-12-14T09:36:18;17.27;;;10.25;;
15913;SDS011;8055;51.930;8.840;2023-12-14T09:38:44;13.30;;;9.50;;
15913;SDS011;8055;51.930;8.840;2023-12-14T09:41:10;13.80;;;9.75;;
15913;SDS011;8055;51.930;8.840;2023-12-14T09:43:37;12.57;;;9.32;;
15913;SDS011;8055;51.930;8.840;2023-12-14T09:46:02;12.77;;;8.85;;
15913;SDS011;8055;51.930;8.840;2023-12-14T09:48:28;11.82;;;9.02;;
15913;SDS011;8055;51.930;8.840;2023-12-14T09:50:55;11.30;;;8.70;;
15913;SDS011;8055;51.930;8.840;2023-12-14T09:53:21;12.48;;;9.00;;
15913;SDS011;8055;51.930;8.840;2023-12-14T09:55:46;10.95;;;8.38;;
15913;SDS011;8055;51.930;8.840;2023-12-14T09:58:12;11.30;;;8.60;;
15913;SDS011;8055;51.930;8.840;2023-12-14T10:00:38;10.05;;;8.02;;
15913;SDS011;8055;51.930;8.840;2023-12-14T10:03:21;12.55;;;8.82;;
15913;SDS011;8055;51.930;8.840;2023-12-14T10:05:49;9.68;;;7.70;;
15913;SDS011;8055;51.930;8.840;2023-12-14T10:08:15;10.55;;;8.50;;
15913;SDS011;8055;51.930;8.840;2023-12-14T10:10:41;10.18;;;8.60;;
15913;SDS011;8055;51.930;8.840;2023-12-14T10:13:07;13.80;;;8.90;;
15913;SDS011;8055;51.930;8.840;2023-12-14T10:15:42;11.63;;;9.25;;
15913;SDS011;8055;51.930;8.840;2023-12-14T10:18:08;12.65;;;9.95;;
15913;SDS011;8055;51.930;8.840;2023-12-14T10:20:34;13.48;;;9.63;;
15913;SDS011;8055;51.930;8.840;2023-12-14T10:22:59;15.30;;;10.85;;
15913;SDS011;8055;51.930;8.840;2023-12-14T10:25:25;10.80;;;8.75;;
15913;SDS011;8055;51.930;8.840;2023-12-14T10:27:51;16.35;;;11.18;;
15913;SDS011;8055;51.930;8.840;2023-12-14T10:30:19;14.50;;;10.27;;
15913;SDS011;8055;51.930;8.840;2023-12-14T10:32:48;13.68;;;10.57;;
15913;SDS011;8055;51.930;8.840;2023-12-14T10:35:15;13.73;;;9.80;;
15913;SDS011;8055;51.930;8.840;2023-12-14T10:37:41;13.43;;;10.23;;
15913;SDS011;8055;51.930;8.840;2023-12-14T10:40:09;15.45;;;10.52;;
15913;SDS011;8055;51.930;8.840;2023-12-14T10:42:37;13.98;;;11.32;;
15913;SDS011;8055;51.930;8.840;2023-12-14T10:45:07;14.40;;;11.43;;
15913;SDS011;8055;51.930;8.840;2023-12-14T10:47:35;14.88;;;11.80;;
15913;SDS011;8055;51.930;8.840;2023-12-14T10:50:04;14.88;;;11.02;;
15913;SDS011;8055;51.930;8.840;2023-12-14T10:52:30;14.30;;;11.13;;
15913;SDS011;8055;51.930;8.840;2023-12-14T10:55:01;15.73;;;10.95;;
15913;SDS011;8055;51.930;8.840;2023-12-14T10:57:29;13.45;;;10.75;;
15913;SDS011;8055;51.930;8.840;2023-12-14T11:00:04;14.02;;;11.38;;
15913;SDS011;8055;51.930;8.840;2023-12-14T11:02:38;15.10;;;11.32;;
15913;SDS011;8055;51.930;8.840;2023-12-14T11:05:05;13.90;;;10.82;;
15913;SDS011;8055;51.930;8.840;2023-12-14T11:10:12;15.95;;;12.25;;
15913;SDS011;8055;51.930;8.840;2023-12-14T11:12:37;18.15;;;13.95;;
15913;SDS011;8055;51.930;8.840;2023-12-14T11:15:14;15.98;;;13.05;;
15913;SDS011;8055;51.930;8.840;2023-12-14T11:17:42;16.45;;;12.77;;
15913;SDS011;8055;51.930;8.840;2023-12-14T11:20:23;16.15;;;12.70;;
15913;SDS011;8055;51.930;8.840;2023-12-14T11:22:49;17.88;;;13.63;;
15913;SDS011;8055;51.930;8.840;2023-12-14T11:25:20;19.35;;;15.43;;
15913;SDS011;8055;51.930;8.840;2023-12-14T11:27:45;18.42;;;14.98;;
15913;SDS011;8055;51.930;8.840;2023-12-14T11:30:12;19.80;;;14.57;;
15913;SDS011;8055;51.930;8.840;2023-12-14T11:32:37;16.52;;;13.40;;
15913;SDS011;8055;51.930;8.840;2023-12-14T11:35:02;19.70;;;15.70;;
15913;SDS011;8055;51.930;8.840;2023-12-14T11:37:28;19.75;;;14.85;;
15913;SDS011;8055;51.930;8.840;2023-12-14T11:39:54;18.33;;;14.30;;
15913;SDS011;8055;51.930;8.840;2023-12-14T11:42:19;19.35;;;14.10;;
15913;SDS011;8055;51.930;8.840;2023-12-14T11:44:45;20.13;;;15.20;;
15913;SDS011;8055;51.930;8.840;2023-12-14T11:47:10;20.05;;;14.95;;
15913;SDS011;8055;51.930;8.840;2023-12-14T11:49:36;19.38;;;14.80;;
15913;SDS011;8055;51.930;8.840;2023-12-14T11:52:02;19.85;;;15.02;;
15913;SDS011;8055;51.930;8.840;2023-12-14T11:54:29;19.92;;;15.07;;
15913;SDS011;8055;51.930;8.840;2023-12-14T11:56:55;22.10;;;15.70;;
15913;SDS011;8055;51.930;8.840;2023-12-14T11:59:20;20.27;;;14.68;;
15913;SDS011;8055;51.930;8.840;2023-12-14T12:01:59;19.10;;;14.13;;
15913;SDS011;8055;51.930;8.840;2023-12-14T12:04:26;22.02;;;16.88;;
15913;SDS011;8055;51.930;8.840;2023-12-14T12:06:58;22.90;;;14.82;;
15913;SDS011;8055;51.930;8.840;2023-12-14T12:09:34;20.25;;;14.95;;
15913;SDS011;8055;51.930;8.840;2023-12-14T12:12:02;18.75;;;13.57;;
15913;SDS011;8055;51.930;8.840;2023-12-14T12:14:30;19.70;;;13.90;;
15913;SDS011;8055;51.930;8.840;2023-12-14T12:16:56;21.35;;;14.50;;
15913;SDS011;8055;51.930;8.840;2023-12-14T12:19:21;18.58;;;13.57;;
15913;SDS011;8055;51.930;8.840;2023-12-14T12:21:46;25.35;;;16.30;;
15913;SDS011;8055;51.930;8.840;2023-12-14T12:24:12;19.73;;;13.70;;
15913;SDS011;8055;51.930;8.840;2023-12-14T12:26:37;20.70;;;15.27;;
15913;SDS011;8055;51.930;8.840;2023-12-14T12:29:03;18.95;;;13.95;;
15913;SDS011;8055;51.930;8.840;2023-12-14T12:31:31;18.95;;;13.60;;
15913;SDS011;8055;51.930;8.840;2023-12-14T12:33:56;18.58;;;13.80;;
15913;SDS011;8055;51.930;8.840;2023-12-14T12:36:22;17.90;;;13.20;;
15913;SDS011;8055;51.930;8.840;2023-12-14T12:38:47;17.63;;;13.13;;
15913;SDS011;8055;51.930;8.840;2023-12-14T12:41:12;16.70;;;12.32;;
15913;SDS011;8055;51.930;8.840;2023-12-14T12:43:38;16.50;;;11.73;;
15913;SDS011;8055;51.930;8.840;2023-12-14T12:46:03;18.92;;;12.90;;
15913;SDS011;8055;51.930;8.840;2023-12-14T12:48:29;16.85;;;12.05;;
15913;SDS011;8055;51.930;8.840;2023-12-14T12:50:54;16.48;;;11.52;;
15913;SDS011;8055;51.930;8.840;2023-12-14T12:53:20;18.58;;;13.70;;
15913;SDS011;8055;51.930;8.840;2023-12-14T12:55:45;16.88;;;13.05;;
15913;SDS011;8055;51.930;8.840;2023-12-14T12:58:11;17.33;;;11.90;;
15913;SDS011;8055;51.930;8.840;2023-12-14T13:00:36;14.70;;;11.15;;
15913;SDS011;8055;51.930;8.840;2023-12-14T13:03:03;13.55;;;9.98;;
15913;SDS011;8055;51.930;8.840;2023-12-14T13:05:28;17.55;;;11.32;;
15913;SDS011;8055;51.930;8.840;2023-12-14T13:07:53;16.30;;;10.40;;
15913;SDS011;8055;51.930;8.840;2023-12-14T13:10:19;11.45;;;9.35;;
15913;SDS011;8055;51.930;8.840;2023-12-14T13:12:47;15.32;;;10.57;;
15913;SDS011;8055;51.930;8.840;2023-12-14T13:15:13;15.88;;;10.98;;
15913;SDS011;8055;51.930;8.840;2023-12-14T13:17:38;11.73;;;9.07;;
15913;SDS011;8055;51.930;8.840;2023-12-14T13:20:04;12.60;;;9.80;;
15913;SDS011;8055;51.930;8.840;2023-12-14T13:22:32;10.80;;;9.48;;
15913;SDS011;8055;51.930;8.840;2023-12-14T13:24:57;11.80;;;9.63;;
15913;SDS011;8055;51.930;8.840;2023-12-14T13:27:23;12.55;;;9.57;;
15913;SDS011;8055;51.930;8.840;2023-12-14T13:29:50;10.45;;;8.60;;
15913;SDS011;8055;51.930;8.840;2023-12-14T13:32:15;9.75;;;8.50;;
15913;SDS011;8055;51.930;8.840;2023-12-14T13:34:40;9.43;;;8.10;;
15913;SDS011;8055;51.930;8.840;2023-12-14T13:37:06;9.55;;;8.43;;
15913;SDS011;8055;51.930;8.840;2023-12-14T13:39:34;9.00;;;8.10;;
15913;SDS011;8055;51.930;8.840;2023-12-14T13:42:03;10.85;;;8.20;;
15913;SDS011;8055;51.930;8.840;2023-12-14T13:44:29;9.95;;;7.75;;
15913;SDS011;8055;51.930;8.840;2023-12-14T13:46:55;9.82;;;8.32;;
15913;SDS011;8055;51.930;8.840;2023-12-14T13:49:20;10.07;;;8.82;;
15913;SDS011;8055;51.930;8.840;2023-12-14T13:51:46;15.07;;;13.52;;
15913;SDS011;8055;51.930;8.840;2023-12-14T13:54:11;10.32;;;8.98;;
15913;SDS011;8055;51.930;8.840;2023-12-14T13:56:37;9.13;;;8.15;;
15913;SDS011;8055;51.930;8.840;2023-12-14T13:59:03;11.02;;;8.38;;
15913;SDS011;8055;51.930;8.840;2023-12-14T14:01:28;10.48;;;8.05;;
15913;SDS011;8055;51.930;8.840;2023-12-14T14:03:53;9.88;;;8.30;;
15913;SDS011;8055;51.930;8.840;2023-12-14T14:06:19;10.88;;;8.70;;
15913;SDS011;8055;51.930;8.840;2023-12-14T14:08:45;12.85;;;8.73;;
15913;SDS011;8055;51.930;8.840;2023-12-14T14:11:11;12.27;;;8.27;;
15913;SDS011;8055;51.930;8.840;2023-12-14T14:13:37;9.90;;;8.38;;
15913;SDS011;8055;51.930;8.840;2023-12-14T14:16:03;10.07;;;8.77;;
15913;SDS011;8055;51.930;8.840;2023-12-14T14:18:30;10.10;;;7.80;;
15913;SDS011;8055;51.930;8.840;2023-12-14T14:20:55;10.13;;;8.30;;
15913;SDS011;8055;51.930;8.840;2023-12-14T14:23:21;14.55;;;8.95;;
15913;SDS011;8055;51.930;8.840;2023-12-14T14:25:46;10.30;;;8.70;;
15913;SDS011;8055;51.930;8.840;2023-12-14T14:28:12;10.63;;;7.60;;
15913;SDS011;8055;51.930;8.840;2023-12-14T14:30:37;10.13;;;8.20;;
15913;SDS011;8055;51.930;8.840;2023-12-14T14:33:03;14.32;;;9.35;;
15913;SDS011;8055;51.930;8.840;2023-12-14T14:35:28;12.13;;;9.57;;
15913;SDS011;8055;51.930;8.840;2023-12-14T14:37:54;10.15;;;8.50;;
15913;SDS011;8055;51.930;8.840;2023-12-14T14:40:19;12.32;;;8.82;;